Landisburg, Pennsylvania
Current Conditions -  °F | °C
As of 10:56 AM on Thursday 18 Dec 2014 (Local Time) from KCXY Reporting Station
Overcast Overcast  
Wind Chill: 27°   Ceiling: 3300
Heat Index: 36°   Visibility: 10mi
Dew Point: 23°   Wind: 14mph
Humidity: 59%   Direction: 280°W
Pressure: 30.12"   Gusts: NA
Location:  40.34°N, 77.31°W
Report Text: KCXY 181556Z 28012KT 10SM BKN033 OVC047 02/M05 A3012 RMK AO2 SLP203 T00221050
Loading
Personal Weather Stations






























Interactive Weather Map New forecast layout! Learn more

10-Day Weather Forecast

Advertisements
Track Severe Weather on mobile